Time,TemperatureF,DewpointF,PressureIn,WindDirection,WindDirectionDegrees,WindSpeedMPH,WindSpeedGustMPH,Humidity,HourlyPrecipIn,Conditions,Clouds,dailyrainin,SolarRadiationWatts/m^2,SoftwareType,DateUTC
2013-07-16 00:01:00,70.0,68.0,30.42,NE,52,1.0,2.0,94,0.00,,,0.00,0.000000,,2013-07-16 04:01:00,
2013-07-16 13:10:00,93.0,72.0,30.41,NNW,340,2.0,7.0,50,-99.99,,,0.00,1065.000000,,2013-07-16 17:10:00,
2013-07-16 13:43:00,93.0,72.0,30.41,NNW,340,2.0,7.0,50,-99.99,,,0.00,1065.000000,,2013-07-16 17:43:00,
2013-07-16 13:53:00,93.0,72.0,30.41,NNW,340,2.0,7.0,50,-99.99,,,0.00,1065.000000,,2013-07-16 17:53:00,
2013-07-16 14:01:00,93.0,72.0,30.41,NNW,340,2.0,7.0,50,-99.99,,,0.00,1065.000000,,2013-07-16 18:01:00,
2013-07-16 14:10:00,95.0,72.0,30.39,SSE,163,2.0,7.0,47,0.00,,,0.00,1105.000000,,2013-07-16 18:10:00,
2013-07-16 14:43:00,95.0,72.0,30.39,SSE,163,2.0,7.0,47,0.00,,,0.00,1105.000000,,2013-07-16 18:43:00,
2013-07-16 14:53:00,95.0,72.0,30.39,SSE,163,2.0,7.0,47,0.00,,,0.00,1105.000000,,2013-07-16 18:53:00,
2013-07-16 15:01:00,95.0,72.0,30.39,SSE,163,2.0,7.0,47,0.00,,,0.00,1105.000000,,2013-07-16 19:01:00,
2013-07-16 15:10:00,95.0,71.0,30.38,SE,142,3.0,8.0,46,0.00,,,0.00,1180.000000,,2013-07-16 19:10:00,
2013-07-16 15:43:00,95.0,71.0,30.38,SE,142,3.0,8.0,46,0.00,,,0.00,1180.000000,,2013-07-16 19:43:00,
2013-07-16 15:52:00,95.0,71.0,30.38,SE,142,3.0,8.0,46,0.00,,,0.00,1180.000000,,2013-07-16 19:52:00,
2013-07-16 16:03:00,95.0,71.0,30.38,SE,142,3.0,8.0,46,0.00,,,0.00,1180.000000,,2013-07-16 20:03:00,
2013-07-16 16:10:00,95.0,72.0,30.36,West,261,2.0,7.0,48,0.00,,,0.00,949.000000,,2013-07-16 20:10:00,
2013-07-16 16:43:00,95.0,72.0,30.36,West,261,2.0,7.0,48,0.00,,,0.00,949.000000,,2013-07-16 20:43:00,
2013-07-16 16:52:00,95.0,72.0,30.36,West,261,2.0,7.0,48,0.00,,,0.00,949.000000,,2013-07-16 20:52:00,
2013-07-16 17:01:00,95.0,72.0,30.36,West,261,2.0,7.0,48,0.00,,,0.00,949.000000,,2013-07-16 21:01:00,
2013-07-16 17:10:00,99.0,73.0,30.36,NE,47,2.0,6.0,44,0.00,,,0.00,823.000000,,2013-07-16 21:10:00,
2013-07-16 17:52:00,99.0,73.0,30.36,NE,47,2.0,6.0,44,0.00,,,0.00,823.000000,,2013-07-16 21:52:00,
2013-07-16 18:01:00,99.0,73.0,30.36,NE,47,2.0,6.0,44,0.00,,,0.00,823.000000,,2013-07-16 22:01:00,
2013-07-16 18:10:00,96.0,74.0,30.35,SW,232,2.0,7.0,49,0.00,,,0.00,681.000000,,2013-07-16 22:10:00,
2013-07-16 18:43:00,96.0,74.0,30.35,SW,232,2.0,7.0,49,0.00,,,0.00,681.000000,,2013-07-16 22:43:00,
2013-07-16 18:52:00,96.0,74.0,30.35,SW,232,2.0,7.0,49,0.00,,,0.00,681.000000,,2013-07-16 22:52:00,
2013-07-16 19:02:00,96.0,74.0,30.35,SW,232,2.0,7.0,49,0.00,,,0.00,681.000000,,2013-07-16 23:02:00,
2013-07-16 19:10:00,90.0,78.0,30.35,SSW,211,2.0,6.0,67,0.00,,,0.00,410.000000,,2013-07-16 23:10:00,
2013-07-16 19:43:00,90.0,78.0,30.35,SSW,211,2.0,6.0,67,0.00,,,0.00,410.000000,,2013-07-16 23:43:00,
2013-07-16 19:52:00,90.0,78.0,30.35,SSW,211,2.0,6.0,67,0.00,,,0.00,410.000000,,2013-07-16 23:52:00,
2013-07-16 20:01:00,90.0,78.0,30.35,SSW,211,2.0,6.0,67,0.00,,,0.00,410.000000,,2013-07-17 00:01:00,
2013-07-16 23:10:00,73.0,72.0,30.37,NW,321,1.0,3.0,97,-99.99,,,0.00,0.000000,,2013-07-17 03:10:00,
2013-07-16 23:43:00,73.0,72.0,30.37,NW,321,1.0,3.0,97,-99.99,,,0.00,0.000000,,2013-07-17 03:43:00,
2013-07-16 23:53:00,73.0,72.0,30.37,NW,321,1.0,3.0,97,-99.99,,,0.00,0.000000,,2013-07-17 03:53:00,